sensor_id;sensor_type;location;lat;lon;timestamp;pressure;altitude;pressure_sealevel;temperature;humidity
17593;BME280;8915;51.760;14.300;2023-01-26T00:00:42;101642.47;;;-1.00;100.00
17593;BME280;8915;51.760;14.300;2023-01-26T00:03:08;101650.31;;;-0.96;100.00
17593;BME280;8915;51.760;14.300;2023-01-26T00:05:35;101650.25;;;-0.97;100.00
17593;BME280;8915;51.760;14.300;2023-01-26T00:08:02;101633.97;;;-0.99;100.00
17593;BME280;8915;51.760;14.300;2023-01-26T00:10:30;101626.28;;;-0.99;100.00
17593;BME280;8915;51.760;14.300;2023-01-26T00:12:56;101626.16;;;-1.02;100.00
17593;BME280;8915;51.760;14.300;2023-01-26T00:15:22;101621.81;;;-1.05;100.00
17593;BME280;8915;51.760;14.300;2023-01-26T00:17:49;101621.03;;;-1.02;100.00
17593;BME280;8915;51.760;14.300;2023-01-26T00:20:16;101614.19;;;-1.03;100.00
17593;BME280;8915;51.760;14.300;2023-01-26T00:22:42;101607.38;;;-1.03;100.00
17593;BME280;8915;51.760;14.300;2023-01-26T00:25:09;101599.63;;;-1.04;100.00
17593;BME280;8915;51.760;14.300;2023-01-26T00:27:38;101600.47;;;-1.05;100.00
17593;BME280;8915;51.760;14.300;2023-01-26T00:30:05;101601.31;;;-1.05;100.00
17593;BME280;8915;51.760;14.300;2023-01-26T00:32:33;101596.03;;;-1.09;100.00
17593;BME280;8915;51.760;14.300;2023-01-26T00:35:00;101587.59;;;-1.07;100.00
17593;BME280;8915;51.760;14.300;2023-01-26T00:37:27;101586.78;;;-1.06;100.00
17593;BME280;8915;51.760;14.300;2023-01-26T00:39:53;101576.47;;;-1.07;100.00
17593;BME280;8915;51.760;14.300;2023-01-26T00:42:22;101570.50;;;-1.08;100.00
17593;BME280;8915;51.760;14.300;2023-01-26T00:44:50;101564.56;;;-1.07;100.00
17593;BME280;8915;51.760;14.300;2023-01-26T00:47:17;101562.13;;;-1.04;100.00
17593;BME280;8915;51.760;14.300;2023-01-26T00:49:44;101569.75;;;-1.05;100.00
17593;BME280;8915;51.760;14.300;2023-01-26T00:52:11;101561.16;;;-1.06;100.00
17593;BME280;8915;51.760;14.300;2023-01-26T00:54:38;101562.06;;;-1.05;100.00
17593;BME280;8915;51.760;14.300;2023-01-26T00:57:05;101571.34;;;-1.07;100.00
17593;BME280;8915;51.760;14.300;2023-01-26T00:59:31;101571.47;;;-1.04;100.00
17593;BME280;8915;51.760;14.300;2023-01-26T01:01:59;101564.63;;;-1.05;100.00
17593;BME280;8915;51.760;14.300;2023-01-26T01:04:27;101572.19;;;-1.08;100.00
17593;BME280;8915;51.760;14.300;2023-01-26T01:06:54;101578.16;;;-1.08;100.00
17593;BME280;8915;51.760;14.300;2023-01-26T01:09:20;101572.25;;;-1.07;100.00
17593;BME280;8915;51.760;14.300;2023-01-26T01:11:48;101575.66;;;-1.06;100.00
17593;BME280;8915;51.760;14.300;2023-01-26T01:14:14;101562.69;;;-1.11;100.00
17593;BME280;8915;51.760;14.300;2023-01-26T01:16:42;101555.91;;;-1.10;100.00
17593;BME280;8915;51.760;14.300;2023-01-26T01:19:13;101565.31;;;-1.09;100.00
17593;BME280;8915;51.760;14.300;2023-01-26T01:21:43;101561.88;;;-1.10;100.00
17593;BME280;8915;51.760;14.300;2023-01-26T01:24:12;101563.72;;;-1.06;100.00
17593;BME280;8915;51.760;14.300;2023-01-26T01:26:39;101565.44;;;-1.06;100.00
17593;BME280;8915;51.760;14.300;2023-01-26T01:29:06;101558.66;;;-1.04;100.00
17593;BME280;8915;51.760;14.300;2023-01-26T01:31:32;101562.13;;;-1.04;100.00
17593;BME280;8915;51.760;14.300;2023-01-26T01:33:59;101554.44;;;-1.04;100.00
17593;BME280;8915;51.760;14.300;2023-01-26T01:36:27;101562.94;;;-1.05;100.00
17593;BME280;8915;51.760;14.300;2023-01-26T01:38:56;101563.66;;;-1.09;100.00
17593;BME280;8915;51.760;14.300;2023-01-26T01:41:23;101564.38;;;-1.11;100.00
17593;BME280;8915;51.760;14.300;2023-01-26T01:43:50;101563.66;;;-1.09;100.00
17593;BME280;8915;51.760;14.300;2023-01-26T01:46:24;101568.06;;;-1.05;100.00
17593;BME280;8915;51.760;14.300;2023-01-26T01:48:57;101564.72;;;-1.02;100.00
17593;BME280;8915;51.760;14.300;2023-01-26T01:51:32;101558.72;;;-1.03;100.00
17593;BME280;8915;51.760;14.300;2023-01-26T01:54:02;101554.47;;;-1.02;100.00
17593;BME280;8915;51.760;14.300;2023-01-26T01:56:30;101549.31;;;-1.04;100.00
17593;BME280;8915;51.760;14.300;2023-01-26T01:58:59;101533.91;;;-1.05;100.00
17593;BME280;8915;51.760;14.300;2023-01-26T02:01:28;101534.72;;;-1.06;100.00
17593;BME280;8915;51.760;14.300;2023-01-26T02:03:58;101538.25;;;-1.03;100.00
17593;BME280;8915;51.760;14.300;2023-01-26T02:06:32;101531.41;;;-1.04;100.00
17593;BME280;8915;51.760;14.300;2023-01-26T02:09:00;101533.91;;;-1.05;100.00
17593;BME280;8915;51.760;14.300;2023-01-26T02:11:30;101528.84;;;-1.04;100.00
17593;BME280;8915;51.760;14.300;2023-01-26T02:14:01;101527.16;;;-1.03;100.00
17593;BME280;8915;51.760;14.300;2023-01-26T02:16:29;101524.53;;;-1.05;100.00
17593;BME280;8915;51.760;14.300;2023-01-26T02:18:56;101518.56;;;-1.05;100.00
17593;BME280;8915;51.760;14.300;2023-01-26T02:21:22;101518.63;;;-1.02;100.00
17593;BME280;8915;51.760;14.300;2023-01-26T02:23:59;101509.22;;;-1.03;100.00
17593;BME280;8915;51.760;14.300;2023-01-26T02:26:31;101507.53;;;-1.03;100.00
17593;BME280;8915;51.760;14.300;2023-01-26T02:28:59;101505.75;;;-1.05;100.00
17593;BME280;8915;51.760;14.300;2023-01-26T02:31:27;101509.06;;;-1.08;100.00
17593;BME280;8915;51.760;14.300;2023-01-26T02:33:55;101497.19;;;-1.06;100.00
17593;BME280;8915;51.760;14.300;2023-01-26T02:36:24;101497.09;;;-1.09;100.00
17593;BME280;8915;51.760;14.300;2023-01-26T02:38:58;101489.41;;;-1.09;100.00
17593;BME280;8915;51.760;14.300;2023-01-26T02:41:25;101487.78;;;-1.07;100.00
17593;BME280;8915;51.760;14.300;2023-01-26T02:44:12;101488.63;;;-1.06;100.00
17593;BME280;8915;51.760;14.300;2023-01-26T02:46:39;101486.13;;;-1.05;100.00
17593;BME280;8915;51.760;14.300;2023-01-26T02:49:05;101479.31;;;-1.04;100.00
17593;BME280;8915;51.760;14.300;2023-01-26T02:51:50;101476.69;;;-1.06;100.00
17593;BME280;8915;51.760;14.300;2023-01-26T02:54:17;101478.44;;;-1.05;100.00
17593;BME280;8915;51.760;14.300;2023-01-26T02:56:58;101473.28;;;-1.06;100.00
17593;BME280;8915;51.760;14.300;2023-01-26T02:59:27;101470.72;;;-1.06;100.00
17593;BME280;8915;51.760;14.300;2023-01-26T03:01:55;101468.97;;;-1.07;100.00
17593;BME280;8915;51.760;14.300;2023-01-26T03:04:22;101469.75;;;-1.10;100.00
17593;BME280;8915;51.760;14.300;2023-01-26T03:06:49;101464.63;;;-1.10;100.00
17593;BME280;8915;51.760;14.300;2023-01-26T03:09:15;101471.44;;;-1.10;100.00
17593;BME280;8915;51.760;14.300;2023-01-26T03:11:42;101472.25;;;-1.11;100.00
17593;BME280;8915;51.760;14.300;2023-01-26T03:14:08;101464.63;;;-1.10;100.00
17593;BME280;8915;51.760;14.300;2023-01-26T03:16:37;101462.00;;;-1.11;100.00
17593;BME280;8915;51.760;14.300;2023-01-26T03:19:04;101465.41;;;-1.12;100.00
17593;BME280;8915;51.760;14.300;2023-01-26T03:21:49;101466.31;;;-1.10;100.00
17593;BME280;8915;51.760;14.300;2023-01-26T03:24:32;101464.56;;;-1.11;100.00
17593;BME280;8915;51.760;14.300;2023-01-26T03:27:16;101457.59;;;-1.16;100.00
17593;BME280;8915;51.760;14.300;2023-01-26T03:29:54;101460.22;;;-1.14;100.00
17593;BME280;8915;51.760;14.300;2023-01-26T03:32:23;101456.69;;;-1.18;100.00
17593;BME280;8915;51.760;14.300;2023-01-26T03:34:51;101453.28;;;-1.17;100.00
17593;BME280;8915;51.760;14.300;2023-01-26T03:37:18;101455.75;;;-1.20;100.00
17593;BME280;8915;51.760;14.300;2023-01-26T03:40:01;101451.50;;;-1.19;100.00
17593;BME280;8915;51.760;14.300;2023-01-26T03:42:47;101454.06;;;-1.19;100.00
17593;BME280;8915;51.760;14.300;2023-01-26T03:45:31;101453.28;;;-1.17;100.00
17593;BME280;8915;51.760;14.300;2023-01-26T03:48:19;101454.22;;;-1.15;100.00
17593;BME280;8915;51.760;14.300;2023-01-26T03:51:04;101445.66;;;-1.15;100.00
17593;BME280;8915;51.760;14.300;2023-01-26T03:53:48;101444.03;;;-1.13;100.00
17593;BME280;8915;51.760;14.300;2023-01-26T03:56:33;101445.50;;;-1.20;100.00
17593;BME280;8915;51.760;14.300;2023-01-26T03:59:06;101441.28;;;-1.19;100.00
17593;BME280;8915;51.760;14.300;2023-01-26T04:01:35;101439.56;;;-1.19;100.00
17593;BME280;8915;51.760;14.300;2023-01-26T04:04:04;101431.16;;;-1.16;100.00
17593;BME280;8915;51.760;14.300;2023-01-26T04:06:48;101423.34;;;-1.19;100.00
17593;BME280;8915;51.760;14.300;2023-01-26T04:09:35;101420.84;;;-1.18;100.00
17593;BME280;8915;51.760;14.300;2023-01-26T04:12:05;101413.94;;;-1.20;100.00
17593;BME280;8915;51.760;14.300;2023-01-26T04:14:38;101413.94;;;-1.20;100.00
17593;BME280;8915;51.760;14.300;2023-01-26T04:17:24;101411.44;;;-1.19;100.00
17593;BME280;8915;51.760;14.300;2023-01-26T04:20:10;101409.78;;;-1.17;100.00
17593;BME280;8915;51.760;14.300;2023-01-26T04:22:54;101417.53;;;-1.15;100.00
17593;BME280;8915;51.760;14.300;2023-01-26T04:25:21;101414.84;;;-1.18;100.00
17593;BME280;8915;51.760;14.300;2023-01-26T04:27:48;101422.47;;;-1.20;100.00
17593;BME280;8915;51.760;14.300;2023-01-26T04:30:17;101418.25;;;-1.19;100.00
17593;BME280;8915;51.760;14.300;2023-01-26T04:32:44;101420.75;;;-1.21;100.00
17593;BME280;8915;51.760;14.300;2023-01-26T04:35:13;101419.91;;;-1.20;100.00
17593;BME280;8915;51.760;14.300;2023-01-26T04:37:41;101420.75;;;-1.21;100.00
17593;BME280;8915;51.760;14.300;2023-01-26T04:40:09;101414.72;;;-1.23;100.00
17593;BME280;8915;51.760;14.300;2023-01-26T04:42:36;101420.56;;;-1.25;100.00
17593;BME280;8915;51.760;14.300;2023-01-26T04:45:04;101412.91;;;-1.25;100.00
17593;BME280;8915;51.760;14.300;2023-01-26T04:47:31;101422.38;;;-1.23;100.00
17593;BME280;8915;51.760;14.300;2023-01-26T04:49:57;101419.88;;;-1.21;100.00
17593;BME280;8915;51.760;14.300;2023-01-26T04:52:26;101417.34;;;-1.20;100.00
17593;BME280;8915;51.760;14.300;2023-01-26T04:54:52;101413.78;;;-1.25;100.00
17593;BME280;8915;51.760;14.300;2023-01-26T04:57:19;101417.94;;;-1.27;100.00
17593;BME280;8915;51.760;14.300;2023-01-26T04:59:49;101418.78;;;-1.28;100.00
17593;BME280;8915;51.760;14.300;2023-01-26T05:02:17;101419.66;;;-1.27;100.00
17593;BME280;8915;51.760;14.300;2023-01-26T05:04:43;101410.34;;;-1.25;100.00
17593;BME280;8915;51.760;14.300;2023-01-26T05:07:11;101408.66;;;-1.25;100.00
17593;BME280;8915;51.760;14.300;2023-01-26T05:09:39;101406.13;;;-1.25;100.00
17593;BME280;8915;51.760;14.300;2023-01-26T05:12:24;101407.88;;;-1.22;100.00
17593;BME280;8915;51.760;14.300;2023-01-26T05:15:18;101406.91;;;-1.26;100.00
17593;BME280;8915;51.760;14.300;2023-01-26T05:18:05;101394.97;;;-1.25;100.00
17593;BME280;8915;51.760;14.300;2023-01-26T05:20:41;101396.72;;;-1.24;100.00
17593;BME280;8915;51.760;14.300;2023-01-26T05:23:14;101400.22;;;-1.22;100.00
17593;BME280;8915;51.760;14.300;2023-01-26T05:26:02;101403.56;;;-1.23;100.00
17593;BME280;8915;51.760;14.300;2023-01-26T05:28:36;101406.13;;;-1.23;100.00
17593;BME280;8915;51.760;14.300;2023-01-26T05:31:02;101402.66;;;-1.25;100.00
17593;BME280;8915;51.760;14.300;2023-01-26T05:33:29;101405.22;;;-1.25;100.00
17593;BME280;8915;51.760;14.300;2023-01-26T05:36:02;101398.47;;;-1.23;100.00
17593;BME280;8915;51.760;14.300;2023-01-26T05:38:30;101397.53;;;-1.25;100.00
17593;BME280;8915;51.760;14.300;2023-01-26T05:40:56;101395.88;;;-1.25;100.00
17593;BME280;8915;51.760;14.300;2023-01-26T05:43:25;101394.94;;;-1.27;100.00
17593;BME280;8915;51.760;14.300;2023-01-26T05:46:08;101392.38;;;-1.27;100.00
17593;BME280;8915;51.760;14.300;2023-01-26T05:48:38;101394.06;;;-1.27;100.00
17593;BME280;8915;51.760;14.300;2023-01-26T05:51:05;101394.06;;;-1.27;100.00
17593;BME280;8915;51.760;14.300;2023-01-26T05:53:34;101392.38;;;-1.27;100.00
17593;BME280;8915;51.760;14.300;2023-01-26T05:56:00;101396.72;;;-1.24;100.00
17593;BME280;8915;51.760;14.300;2023-01-26T05:58:31;101389.00;;;-1.26;100.00
17593;BME280;8915;51.760;14.300;2023-01-26T06:00:57;101388.16;;;-1.26;100.00
17593;BME280;8915;51.760;14.300;2023-01-26T06:03:29;101390.69;;;-1.26;100.00
17593;BME280;8915;51.760;14.300;2023-01-26T06:05:55;101397.47;;;-1.27;100.00
17593;BME280;8915;51.760;14.300;2023-01-26T06:08:42;101398.44;;;-1.25;100.00
17593;BME280;8915;51.760;14.300;2023-01-26T06:11:27;101397.53;;;-1.25;100.00
17593;BME280;8915;51.760;14.300;2023-01-26T06:14:11;101390.75;;;-1.25;100.00
17593;BME280;8915;51.760;14.300;2023-01-26T06:16:37;101395.88;;;-1.25;100.00
17593;BME280;8915;51.760;14.300;2023-01-26T06:19:04;101396.72;;;-1.24;100.00
17593;BME280;8915;51.760;14.300;2023-01-26T06:21:31;101403.56;;;-1.25;100.00
17593;BME280;8915;51.760;14.300;2023-01-26T06:24:00;101395.91;;;-1.23;100.00
17593;BME280;8915;51.760;14.300;2023-01-26T06:26:26;101398.50;;;-1.22;100.00
17593;BME280;8915;51.760;14.300;2023-01-26T06:28:56;101401.00;;;-1.23;100.00
17593;BME280;8915;51.760;14.300;2023-01-26T06:31:26;101391.56;;;-1.26;100.00
17593;BME280;8915;51.760;14.300;2023-01-26T06:33:56;101394.06;;;-1.27;100.00
17593;BME280;8915;51.760;14.300;2023-01-26T06:36:23;101395.75;;;-1.28;100.00
17593;BME280;8915;51.760;14.300;2023-01-26T06:38:50;101401.00;;;-1.23;100.00
17593;BME280;8915;51.760;14.300;2023-01-26T06:41:18;101401.97;;;-1.21;100.00
17593;BME280;8915;51.760;14.300;2023-01-26T06:43:47;101396.69;;;-1.26;100.00
17593;BME280;8915;51.760;14.300;2023-01-26T06:46:16;101394.22;;;-1.23;100.00
17593;BME280;8915;51.760;14.300;2023-01-26T06:48:45;101403.56;;;-1.25;100.00
17593;BME280;8915;51.760;14.300;2023-01-26T06:51:39;101402.78;;;-1.22;100.00
17593;BME280;8915;51.760;14.300;2023-01-26T06:54:09;101401.91;;;-1.23;100.00
17593;BME280;8915;51.760;14.300;2023-01-26T06:56:54;101399.34;;;-1.23;100.00
17593;BME280;8915;51.760;14.300;2023-01-26T06:59:39;101403.63;;;-1.22;100.00
17593;BME280;8915;51.760;14.300;2023-01-26T07:02:24;101401.06;;;-1.22;100.00
17593;BME280;8915;51.760;14.300;2023-01-26T07:04:52;101397.59;;;-1.24;100.00
17593;BME280;8915;51.760;14.300;2023-01-26T07:07:18;101407.88;;;-1.22;100.00
17593;BME280;8915;51.760;14.300;2023-01-26T07:09:45;101411.25;;;-1.23;100.00
17593;BME280;8915;51.760;14.300;2023-01-26T07:12:11;101422.31;;;-1.24;100.00
17593;BME280;8915;51.760;14.300;2023-01-26T07:14:38;101418.84;;;-1.26;100.00
17593;BME280;8915;51.760;14.300;2023-01-26T07:17:05;101420.50;;;-1.28;100.00
17593;BME280;8915;51.760;14.300;2023-01-26T07:19:31;101415.44;;;-1.25;100.00
17593;BME280;8915;51.760;14.300;2023-01-26T07:22:00;101412.16;;;-1.23;100.00
17593;BME280;8915;51.760;14.300;2023-01-26T07:24:27;101415.50;;;-1.24;100.00
17593;BME280;8915;51.760;14.300;2023-01-26T07:26:54;101399.34;;;-1.23;100.00
17593;BME280;8915;51.760;14.300;2023-01-26T07:29:21;101402.78;;;-1.22;100.00
17593;BME280;8915;51.760;14.300;2023-01-26T07:31:47;101395.09;;;-1.22;100.00
17593;BME280;8915;51.760;14.300;2023-01-26T07:34:13;101400.22;;;-1.22;100.00
17593;BME280;8915;51.760;14.300;2023-01-26T07:36:40;101390.69;;;-1.26;100.00
17593;BME280;8915;51.760;14.300;2023-01-26T07:39:08;101391.72;;;-1.21;100.00
17593;BME280;8915;51.760;14.300;2023-01-26T07:41:34;101390.94;;;-1.19;100.00
17593;BME280;8915;51.760;14.300;2023-01-26T07:44:12;101394.28;;;-1.21;100.00
17593;BME280;8915;51.760;14.300;2023-01-26T07:46:38;101383.16;;;-1.22;100.00
17593;BME280;8915;51.760;14.300;2023-01-26T07:49:06;101391.75;;;-1.20;100.00
17593;BME280;8915;51.760;14.300;2023-01-26T07:51:32;101389.16;;;-1.21;100.00
17593;BME280;8915;51.760;14.300;2023-01-26T07:53:58;101387.41;;;-1.22;100.00
17593;BME280;8915;51.760;14.300;2023-01-26T07:56:28;101386.38;;;-1.27;100.00
17593;BME280;8915;51.760;14.300;2023-01-26T07:58:54;101376.22;;;-1.26;100.00
17593;BME280;8915;51.760;14.300;2023-01-26T08:01:21;101382.13;;;-1.27;100.00
17593;BME280;8915;51.760;14.300;2023-01-26T08:03:49;101383.03;;;-1.26;100.00
17593;BME280;8915;51.760;14.300;2023-01-26T08:06:16;101387.47;;;-1.21;100.00
17593;BME280;8915;51.760;14.300;2023-01-26T08:08:43;101386.63;;;-1.21;100.00
17593;BME280;8915;51.760;14.300;2023-01-26T08:11:10;101393.44;;;-1.20;100.00
17593;BME280;8915;51.760;14.300;2023-01-26T08:13:40;101395.09;;;-1.22;100.00
17593;BME280;8915;51.760;14.300;2023-01-26T08:16:09;101389.97;;;-1.22;100.00
17593;BME280;8915;51.760;14.300;2023-01-26T08:18:36;101390.09;;;-1.19;100.00
17593;BME280;8915;51.760;14.300;2023-01-26T08:21:03;101398.69;;;-1.17;100.00
17593;BME280;8915;51.760;14.300;2023-01-26T08:23:30;101399.53;;;-1.17;100.00
17593;BME280;8915;51.760;14.300;2023-01-26T08:25:59;101401.34;;;-1.14;100.00
17593;BME280;8915;51.760;14.300;2023-01-26T08:28:31;101404.94;;;-1.09;100.00
17593;BME280;8915;51.760;14.300;2023-01-26T08:31:04;101403.25;;;-1.08;100.00
17593;BME280;8915;51.760;14.300;2023-01-26T08:33:31;101406.56;;;-1.11;100.00
17593;BME280;8915;51.760;14.300;2023-01-26T08:36:00;101400.69;;;-1.08;100.00
17593;BME280;8915;51.760;14.300;2023-01-26T08:38:28;101392.22;;;-1.06;100.00
17593;BME280;8915;51.760;14.300;2023-01-26T08:40:55;101396.66;;;-1.02;100.00
17593;BME280;8915;51.760;14.300;2023-01-26T08:43:21;101398.31;;;-1.02;100.00
17593;BME280;8915;51.760;14.300;2023-01-26T08:45:48;101406.84;;;-1.03;100.00
17593;BME280;8915;51.760;14.300;2023-01-26T08:48:15;101404.22;;;-1.05;100.00
17593;BME280;8915;51.760;14.300;2023-01-26T08:50:42;101395.75;;;-1.02;100.00
17593;BME280;8915;51.760;14.300;2023-01-26T08:53:08;101394.16;;;-1.00;100.00
17593;BME280;8915;51.760;14.300;2023-01-26T08:55:35;101397.56;;;-1.00;100.00
17593;BME280;8915;51.760;14.300;2023-01-26T08:58:02;101400.13;;;-1.00;100.00
17593;BME280;8915;51.760;14.300;2023-01-26T09:00:29;101401.03;;;-0.98;100.00
17593;BME280;8915;51.760;14.300;2023-01-26T09:02:59;101412.88;;;-1.01;100.00
17593;BME280;8915;51.760;14.300;2023-01-26T09:05:30;101414.63;;;-1.00;100.00
17593;BME280;8915;51.760;14.300;2023-01-26T09:07:57;101415.38;;;-1.03;100.00
17593;BME280;8915;51.760;14.300;2023-01-26T09:10:23;101411.16;;;-1.01;100.00
17593;BME280;8915;51.760;14.300;2023-01-26T09:12:50;101410.38;;;-1.00;100.00
17593;BME280;8915;51.760;14.300;2023-01-26T09:15:16;101404.16;;;-1.06;100.00
17593;BME280;8915;51.760;14.300;2023-01-26T09:17:43;101402.56;;;-1.03;100.00
17593;BME280;8915;51.760;14.300;2023-01-26T09:20:10;101402.47;;;-1.06;100.00
17593;BME280;8915;51.760;14.300;2023-01-26T09:22:38;101404.22;;;-1.05;100.00
17593;BME280;8915;51.760;14.300;2023-01-26T09:25:05;101409.53;;;-0.99;100.00
17593;BME280;8915;51.760;14.300;2023-01-26T09:27:31;101416.41;;;-0.98;100.00
17593;BME280;8915;51.760;14.300;2023-01-26T09:29:58;101412.94;;;-1.00;100.00
17593;BME280;8915;51.760;14.300;2023-01-26T09:32:24;101417.81;;;-1.06;100.00
17593;BME280;8915;51.760;14.300;2023-01-26T09:34:51;101427.19;;;-1.06;100.00
17593;BME280;8915;51.760;14.300;2023-01-26T09:37:17;101419.28;;;-1.14;100.00
17593;BME280;8915;51.760;14.300;2023-01-26T09:39:45;101421.91;;;-1.11;100.00
17593;BME280;8915;51.760;14.300;2023-01-26T09:42:23;101420.25;;;-1.10;100.00
17593;BME280;8915;51.760;14.300;2023-01-26T09:44:58;101422.75;;;-1.12;100.00
17593;BME280;8915;51.760;14.300;2023-01-26T09:47:33;101425.97;;;-1.18;100.00
17593;BME280;8915;51.760;14.300;2023-01-26T09:50:09;101420.81;;;-1.19;100.00
17593;BME280;8915;51.760;14.300;2023-01-26T09:52:47;101418.19;;;-1.21;100.00
17593;BME280;8915;51.760;14.300;2023-01-26T09:55:19;101412.19;;;-1.21;100.00
17593;BME280;8915;51.760;14.300;2023-01-26T09:57:48;101408.66;;;-1.25;100.00
17593;BME280;8915;51.760;14.300;2023-01-26T10:00:19;101415.56;;;-1.22;100.00
17593;BME280;8915;51.760;14.300;2023-01-26T10:02:54;101412.22;;;-1.20;100.00
17593;BME280;8915;51.760;14.300;2023-01-26T10:05:29;101408.66;;;-1.25;100.00
17593;BME280;8915;51.760;14.300;2023-01-26T10:08:08;101408.66;;;-1.25;100.00
17593;BME280;8915;51.760;14.300;2023-01-26T10:10:40;101410.25;;;-1.28;100.00
17593;BME280;8915;51.760;14.300;2023-01-26T10:13:11;101402.59;;;-1.27;100.00
17593;BME280;8915;51.760;14.300;2023-01-26T10:15:40;101400.03;;;-1.28;100.00
17593;BME280;8915;51.760;14.300;2023-01-26T10:18:11;101409.41;;;-1.27;100.00
17593;BME280;8915;51.760;14.300;2023-01-26T10:20:44;101403.38;;;-1.29;100.00
17593;BME280;8915;51.760;14.300;2023-01-26T10:23:14;101411.91;;;-1.29;100.00
17593;BME280;8915;51.760;14.300;2023-01-26T10:25:44;101403.38;;;-1.29;100.00
17593;BME280;8915;51.760;14.300;2023-01-26T10:28:13;101400.75;;;-1.31;100.00
17593;BME280;8915;51.760;14.300;2023-01-26T10:30:44;101392.22;;;-1.31;100.00
17593;BME280;8915;51.760;14.300;2023-01-26T10:33:15;101394.78;;;-1.31;100.00
17593;BME280;8915;51.760;14.300;2023-01-26T10:35:42;101389.66;;;-1.31;100.00
17593;BME280;8915;51.760;14.300;2023-01-26T10:38:37;101397.28;;;-1.33;100.00
17593;BME280;8915;51.760;14.300;2023-01-26T10:41:06;101394.84;;;-1.30;100.00
17593;BME280;8915;51.760;14.300;2023-01-26T10:43:49;101372.69;;;-1.29;100.00
17593;BME280;8915;51.760;14.300;2023-01-26T10:46:23;101377.00;;;-1.27;100.00
17593;BME280;8915;51.760;14.300;2023-01-26T10:48:51;101377.91;;;-1.26;100.00
17593;BME280;8915;51.760;14.300;2023-01-26T10:51:27;101376.22;;;-1.26;100.00
17593;BME280;8915;51.760;14.300;2023-01-26T10:54:16;101376.38;;;-1.21;100.00
17593;BME280;8915;51.760;14.300;2023-01-26T10:56:47;101367.75;;;-1.23;100.00
17593;BME280;8915;51.760;14.300;2023-01-26T10:59:21;101362.59;;;-1.25;100.00
17593;BME280;8915;51.760;14.300;2023-01-26T11:01:54;101365.25;;;-1.22;100.00
17593;BME280;8915;51.760;14.300;2023-01-26T11:04:22;101363.53;;;-1.23;100.00
17593;BME280;8915;51.760;14.300;2023-01-26T11:06:49;101369.63;;;-1.19;100.00
17593;BME280;8915;51.760;14.300;2023-01-26T11:09:18;101370.38;;;-1.22;100.00
17593;BME280;8915;51.760;14.300;2023-01-26T11:11:56;101371.28;;;-1.20;100.00
17593;BME280;8915;51.760;14.300;2023-01-26T11:14:23;101366.31;;;-1.15;100.00
17593;BME280;8915;51.760;14.300;2023-01-26T11:16:54;101371.50;;;-1.13;100.00
17593;BME280;8915;51.760;14.300;2023-01-26T11:19:35;101369.81;;;-1.13;100.00
17593;BME280;8915;51.760;14.300;2023-01-26T11:22:10;101357.91;;;-1.12;100.00
17593;BME280;8915;51.760;14.300;2023-01-26T11:24:43;101356.19;;;-1.12;100.00
17593;BME280;8915;51.760;14.300;2023-01-26T11:27:26;101353.75;;;-1.09;100.00
17593;BME280;8915;51.760;14.300;2023-01-26T11:30:27;101350.53;;;-1.03;100.00
17593;BME280;8915;51.760;14.300;2023-01-26T11:33:02;101354.44;;;-1.13;100.00
17593;BME280;8915;51.760;14.300;2023-01-26T11:35:38;101355.38;;;-1.11;100.00
17593;BME280;8915;51.760;14.300;2023-01-26T11:38:17;101348.53;;;-1.12;100.00
17593;BME280;8915;51.760;14.300;2023-01-26T11:40:50;101348.75;;;-1.04;100.00
17593;BME280;8915;51.760;14.300;2023-01-26T11:46:24;101344.66;;;-0.99;100.00
17593;BME280;8915;51.760;14.300;2023-01-26T11:49:03;101340.28;;;-1.03;100.00
17593;BME280;8915;51.760;14.300;2023-01-26T11:51:46;101338.59;;;-1.03;100.00
17593;BME280;8915;51.760;14.300;2023-01-26T11:54:25;101335.16;;;-1.03;100.00
17593;BME280;8915;51.760;14.300;2023-01-26T11:57:00;101331.06;;;-0.98;100.00
17593;BME280;8915;51.760;14.300;2023-01-26T11:59:31;101331.13;;;-0.97;100.00
17593;BME280;8915;51.760;14.300;2023-01-26T12:02:03;101325.03;;;-1.00;100.00
17593;BME280;8915;51.760;14.300;2023-01-26T12:04:34;101330.09;;;-1.02;100.00
17593;BME280;8915;51.760;14.300;2023-01-26T12:07:12;101322.41;;;-1.02;100.00
17593;BME280;8915;51.760;14.300;2023-01-26T12:09:44;101320.72;;;-1.01;100.00
17593;BME280;8915;51.760;14.300;2023-01-26T12:12:16;101315.53;;;-1.03;100.00
17593;BME280;8915;51.760;14.300;2023-01-26T12:14:49;101308.72;;;-1.02;100.00
17593;BME280;8915;51.760;14.300;2023-01-26T12:17:27;101300.91;;;-1.07;100.00
17593;BME280;8915;51.760;14.300;2023-01-26T12:19:59;101288.97;;;-1.06;100.00
17593;BME280;8915;51.760;14.300;2023-01-26T12:22:32;101279.53;;;-1.07;100.00
17593;BME280;8915;51.760;14.300;2023-01-26T12:25:06;101272.75;;;-1.07;100.00
17593;BME280;8915;51.760;14.300;2023-01-26T12:27:41;101277.03;;;-1.06;100.00
17593;BME280;8915;51.760;14.300;2023-01-26T12:30:23;101273.72;;;-1.03;100.00
17593;BME280;8915;51.760;14.300;2023-01-26T12:32:51;101268.78;;;-0.97;100.00
17593;BME280;8915;51.760;14.300;2023-01-26T12:35:23;101268.78;;;-0.97;100.00
17593;BME280;8915;51.760;14.300;2023-01-26T12:37:57;101268.66;;;-1.02;100.00
17593;BME280;8915;51.760;14.300;2023-01-26T12:40:33;101273.03;;;-0.98;100.00
17593;BME280;8915;51.760;14.300;2023-01-26T12:43:14;101275.75;;;-0.93;100.00
17593;BME280;8915;51.760;14.300;2023-01-26T12:45:46;101275.81;;;-0.90;100.00
17593;BME280;8915;51.760;14.300;2023-01-26T12:48:17;101271.56;;;-0.91;100.00
17593;BME280;8915;51.760;14.300;2023-01-26T12:50:48;101271.44;;;-0.94;100.00
17593;BME280;8915;51.760;14.300;2023-01-26T12:53:21;101279.75;;;-1.01;100.00
17593;BME280;8915;51.760;14.300;2023-01-26T12:56:00;101273.72;;;-1.03;100.00
17593;BME280;8915;51.760;14.300;2023-01-26T12:58:31;101278.91;;;-1.02;100.00
17593;BME280;8915;51.760;14.300;2023-01-26T13:01:02;101279.47;;;-1.10;100.00
17593;BME280;8915;51.760;14.300;2023-01-26T13:03:31;101276.00;;;-1.12;100.00